sensor_id;sensor_type;location;lat;lon;timestamp;pressure;altitude;pressure_sealevel;temperature;humidity
12969;BME280;6549;53.128;8.182;2022-11-20T00:01:35;101082.59;;;-0.59;100.00
12969;BME280;6549;53.128;8.182;2022-11-20T00:04:36;101085.59;;;-0.61;100.00
12969;BME280;6549;53.128;8.182;2022-11-20T00:07:36;101078.59;;;-0.62;100.00
12969;BME280;6549;53.128;8.182;2022-11-20T00:10:37;101087.38;;;-0.56;100.00
12969;BME280;6549;53.128;8.182;2022-11-20T00:13:38;101076.91;;;-0.58;100.00
12969;BME280;6549;53.128;8.182;2022-11-20T00:16:39;101086.00;;;-0.54;100.00
12969;BME280;6549;53.128;8.182;2022-11-20T00:19:39;101072.50;;;-0.54;100.00
12969;BME280;6549;53.128;8.182;2022-11-20T00:22:39;101077.28;;;-0.51;100.00
12969;BME280;6549;53.128;8.182;2022-11-20T00:25:39;101066.97;;;-0.49;100.00
12969;BME280;6549;53.128;8.182;2022-11-20T00:28:41;101072.88;;;-0.47;100.00
12969;BME280;6549;53.128;8.182;2022-11-20T00:31:42;101067.97;;;-0.44;100.00
12969;BME280;6549;53.128;8.182;2022-11-20T00:34:42;101071.16;;;-0.42;100.00
12969;BME280;6549;53.128;8.182;2022-11-20T00:37:42;101063.06;;;-0.42;100.00
12969;BME280;6549;53.128;8.182;2022-11-20T00:40:43;101063.88;;;-0.42;100.00
12969;BME280;6549;53.128;8.182;2022-11-20T00:43:43;101071.69;;;-0.40;100.00
12969;BME280;6549;53.128;8.182;2022-11-20T00:46:43;101063.25;;;-0.39;100.00
12969;BME280;6549;53.128;8.182;2022-11-20T00:49:44;101067.25;;;-0.36;100.00
12969;BME280;6549;53.128;8.182;2022-11-20T00:52:44;101067.56;;;-0.38;100.00
12969;BME280;6549;53.128;8.182;2022-11-20T00:55:59;101066.13;;;-0.35;100.00
12969;BME280;6549;53.128;8.182;2022-11-20T00:59:00;101065.84;;;-0.34;100.00
12969;BME280;6549;53.128;8.182;2022-11-20T01:02:01;101065.03;;;-0.34;100.00
12969;BME280;6549;53.128;8.182;2022-11-20T01:05:01;101066.63;;;-0.33;100.00
12969;BME280;6549;53.128;8.182;2022-11-20T01:08:02;101061.41;;;-0.30;100.00
12969;BME280;6549;53.128;8.182;2022-11-20T01:11:05;101061.94;;;-0.28;100.00
12969;BME280;6549;53.128;8.182;2022-11-20T01:14:09;101067.00;;;-0.26;100.00
12969;BME280;6549;53.128;8.182;2022-11-20T01:17:10;101058.91;;;-0.26;100.00
12969;BME280;6549;53.128;8.182;2022-11-20T01:20:11;101070.22;;;-0.24;100.00
12969;BME280;6549;53.128;8.182;2022-11-20T01:23:11;101064.19;;;-0.21;100.00
12969;BME280;6549;53.128;8.182;2022-11-20T01:26:14;101050.41;;;-0.20;100.00
12969;BME280;6549;53.128;8.182;2022-11-20T01:29:19;101056.59;;;-0.19;100.00
12969;BME280;6549;53.128;8.182;2022-11-20T01:32:20;101050.41;;;-0.20;100.00
12969;BME280;6549;53.128;8.182;2022-11-20T01:35:20;101049.59;;;-0.20;100.00
12969;BME280;6549;53.128;8.182;2022-11-20T01:38:20;101051.19;;;-0.19;100.00
12969;BME280;6549;53.128;8.182;2022-11-20T01:41:24;101041.19;;;-0.19;100.00
12969;BME280;6549;53.128;8.182;2022-11-20T01:44:56;101033.91;;;-0.18;100.00
12969;BME280;6549;53.128;8.182;2022-11-20T01:47:57;101042.78;;;-0.18;100.00
12969;BME280;6549;53.128;8.182;2022-11-20T01:50:57;101039.78;;;-0.16;100.00
12969;BME280;6549;53.128;8.182;2022-11-20T01:54:00;101038.16;;;-0.17;100.00
12969;BME280;6549;53.128;8.182;2022-11-20T01:57:00;101031.66;;;-0.16;100.00
12969;BME280;6549;53.128;8.182;2022-11-20T02:00:11;101027.06;;;-0.16;100.00
12969;BME280;6549;53.128;8.182;2022-11-20T02:03:16;101022.47;;;-0.15;100.00
12969;BME280;6549;53.128;8.182;2022-11-20T02:06:23;101030.06;;;-0.17;100.00
12969;BME280;6549;53.128;8.182;2022-11-20T02:09:25;101021.66;;;-0.16;100.00
12969;BME280;6549;53.128;8.182;2022-11-20T02:12:26;101007.34;;;-0.16;100.00
12969;BME280;6549;53.128;8.182;2022-11-20T02:15:45;101010.06;;;-0.16;100.00
12969;BME280;6549;53.128;8.182;2022-11-20T02:18:46;101007.34;;;-0.16;100.00
12969;BME280;6549;53.128;8.182;2022-11-20T02:21:54;101014.38;;;-0.15;100.00
12969;BME280;6549;53.128;8.182;2022-11-20T02:24:58;101008.97;;;-0.15;100.00
12969;BME280;6549;53.128;8.182;2022-11-20T02:28:01;100994.94;;;-0.17;100.00
12969;BME280;6549;53.128;8.182;2022-11-20T02:31:02;101004.19;;;-0.18;100.00
12969;BME280;6549;53.128;8.182;2022-11-20T02:34:02;101003.06;;;-0.17;100.00
12969;BME280;6549;53.128;8.182;2022-11-20T02:37:03;101000.34;;;-0.17;100.00
12969;BME280;6549;53.128;8.182;2022-11-20T02:40:03;101001.03;;;-0.12;100.00
12969;BME280;6549;53.128;8.182;2022-11-20T02:43:04;101000.75;;;-0.10;100.00
12969;BME280;6549;53.128;8.182;2022-11-20T02:46:07;100993.44;;;-0.10;100.00
12969;BME280;6549;53.128;8.182;2022-11-20T02:49:08;100999.13;;;-0.11;100.00
12969;BME280;6549;53.128;8.182;2022-11-20T02:52:08;100983.72;;;-0.11;100.00
12969;BME280;6549;53.128;8.182;2022-11-20T02:55:09;100992.94;;;-0.12;100.00
12969;BME280;6549;53.128;8.182;2022-11-20T02:58:09;100991.03;;;-0.11;100.00
12969;BME280;6549;53.128;8.182;2022-11-20T03:01:10;100981.31;;;-0.12;100.00
12969;BME280;6549;53.128;8.182;2022-11-20T03:04:10;100972.75;;;-0.14;100.00
12969;BME280;6549;53.128;8.182;2022-11-20T03:07:10;100965.13;;;-0.12;100.00
12969;BME280;6549;53.128;8.182;2022-11-20T03:10:11;100974.53;;;-0.10;100.00
12969;BME280;6549;53.128;8.182;2022-11-20T03:13:11;100972.94;;;-0.11;100.00
12969;BME280;6549;53.128;8.182;2022-11-20T03:16:20;100964.81;;;-0.11;100.00
12969;BME280;6549;53.128;8.182;2022-11-20T03:19:20;100966.72;;;-0.11;100.00
12969;BME280;6549;53.128;8.182;2022-11-20T03:22:21;100962.94;;;-0.10;100.00
12969;BME280;6549;53.128;8.182;2022-11-20T03:25:21;100959.72;;;-0.12;100.00
12969;BME280;6549;53.128;8.182;2022-11-20T03:28:22;100954.66;;;-0.14;100.00
12969;BME280;6549;53.128;8.182;2022-11-20T03:31:25;100948.13;;;-0.13;100.00
12969;BME280;6549;53.128;8.182;2022-11-20T03:34:25;100947.31;;;-0.13;100.00
12969;BME280;6549;53.128;8.182;2022-11-20T03:37:26;100945.75;;;-0.14;100.00
12969;BME280;6549;53.128;8.182;2022-11-20T03:40:26;100951.94;;;-0.14;100.00
12969;BME280;6549;53.128;8.182;2022-11-20T03:43:26;100939.84;;;-0.16;100.00
12969;BME280;6549;53.128;8.182;2022-11-20T03:46:27;100933.97;;;-0.18;100.00
12969;BME280;6549;53.128;8.182;2022-11-20T03:49:28;100930.94;;;-0.17;100.00
12969;BME280;6549;53.128;8.182;2022-11-20T03:52:28;100920.75;;;-0.20;100.00
12969;BME280;6549;53.128;8.182;2022-11-20T03:55:28;100914.25;;;-0.19;100.00
12969;BME280;6549;53.128;8.182;2022-11-20T03:58:29;100922.03;;;-0.17;100.00
12969;BME280;6549;53.128;8.182;2022-11-20T04:01:32;100919.66;;;-0.19;100.00
12969;BME280;6549;53.128;8.182;2022-11-20T04:04:32;100919.84;;;-0.15;100.00
12969;BME280;6549;53.128;8.182;2022-11-20T04:07:33;100909.81;;;-0.15;100.00
12969;BME280;6549;53.128;8.182;2022-11-20T04:10:34;100907.94;;;-0.14;100.00
12969;BME280;6549;53.128;8.182;2022-11-20T04:13:34;100910.13;;;-0.16;100.00
12969;BME280;6549;53.128;8.182;2022-11-20T04:16:35;100923.00;;;-0.13;100.00
12969;BME280;6549;53.128;8.182;2022-11-20T04:19:36;100931.72;;;-0.16;100.00
12969;BME280;6549;53.128;8.182;2022-11-20T04:22:36;100927.94;;;-0.15;100.00
12969;BME280;6549;53.128;8.182;2022-11-20T04:25:36;100922.53;;;-0.15;100.00
12969;BME280;6549;53.128;8.182;2022-11-20T04:28:38;100922.22;;;-0.14;100.00
12969;BME280;6549;53.128;8.182;2022-11-20T04:31:38;100921.91;;;-0.12;100.00
12969;BME280;6549;53.128;8.182;2022-11-20T04:34:39;100925.91;;;-0.10;100.00
12969;BME280;6549;53.128;8.182;2022-11-20T04:37:39;100920.69;;;-0.06;100.00
12969;BME280;6549;53.128;8.182;2022-11-20T04:40:39;100921.94;;;-0.04;100.00
12969;BME280;6549;53.128;8.182;2022-11-20T04:43:40;100913.53;;;-0.02;100.00
12969;BME280;6549;53.128;8.182;2022-11-20T04:46:41;100900.53;;;0.00;100.00
12969;BME280;6549;53.128;8.182;2022-11-20T04:49:42;100903.72;;;0.02;100.00
12969;BME280;6549;53.128;8.182;2022-11-20T04:52:42;100905.31;;;0.03;100.00
12969;BME280;6549;53.128;8.182;2022-11-20T04:55:43;100908.00;;;0.03;100.00
12969;BME280;6549;53.128;8.182;2022-11-20T04:58:43;100908.47;;;0.05;100.00
12969;BME280;6549;53.128;8.182;2022-11-20T05:01:44;100906.91;;;0.04;100.00
12969;BME280;6549;53.128;8.182;2022-11-20T05:04:44;100904.22;;;0.04;100.00
12969;BME280;6549;53.128;8.182;2022-11-20T05:07:44;100905.31;;;0.03;100.00
12969;BME280;6549;53.128;8.182;2022-11-20T05:10:45;100892.59;;;0.04;100.00
12969;BME280;6549;53.128;8.182;2022-11-20T05:13:45;100900.38;;;0.05;100.00
12969;BME280;6549;53.128;8.182;2022-11-20T05:16:45;100906.75;;;0.09;100.00
12969;BME280;6549;53.128;8.182;2022-11-20T05:19:46;100899.78;;;0.08;100.00
12969;BME280;6549;53.128;8.182;2022-11-20T05:22:46;100907.88;;;0.08;100.00
12969;BME280;6549;53.128;8.182;2022-11-20T05:25:46;100905.47;;;0.07;100.00
12969;BME280;6549;53.128;8.182;2022-11-20T05:28:47;100889.56;;;0.05;100.00
12969;BME280;6549;53.128;8.182;2022-11-20T05:31:48;100894.16;;;0.05;100.00
12969;BME280;6549;53.128;8.182;2022-11-20T05:34:48;100886.41;;;0.03;100.00
12969;BME280;6549;53.128;8.182;2022-11-20T05:37:49;100892.09;;;0.02;100.00
12969;BME280;6549;53.128;8.182;2022-11-20T05:40:49;100885.44;;;-0.01;100.00
12969;BME280;6549;53.128;8.182;2022-11-20T05:43:50;100881.94;;;-0.02;100.00
12969;BME280;6549;53.128;8.182;2022-11-20T05:46:50;100881.63;;;0.00;100.00
12969;BME280;6549;53.128;8.182;2022-11-20T05:49:51;100878.91;;;0.00;100.00
12969;BME280;6549;53.128;8.182;2022-11-20T05:52:51;100874.63;;;-0.01;100.00
12969;BME280;6549;53.128;8.182;2022-11-20T05:55:59;100875.44;;;-0.01;100.00
12969;BME280;6549;53.128;8.182;2022-11-20T05:58:59;100869.06;;;-0.05;100.00
12969;BME280;6549;53.128;8.182;2022-11-20T06:02:00;100857.88;;;-0.12;100.00
12969;BME280;6549;53.128;8.182;2022-11-20T06:05:00;100848.97;;;-0.12;100.00
12969;BME280;6549;53.128;8.182;2022-11-20T06:08:00;100843.91;;;-0.14;100.00
12969;BME280;6549;53.128;8.182;2022-11-20T06:11:05;100840.88;;;-0.12;100.00
12969;BME280;6549;53.128;8.182;2022-11-20T06:14:06;100854.72;;;-0.14;100.00
12969;BME280;6549;53.128;8.182;2022-11-20T06:17:06;100849.09;;;-0.17;100.00
12969;BME280;6549;53.128;8.182;2022-11-20T06:20:07;100854.72;;;-0.14;100.00
12969;BME280;6549;53.128;8.182;2022-11-20T06:23:07;100855.47;;;-0.13;100.00
12969;BME280;6549;53.128;8.182;2022-11-20T06:26:14;100853.59;;;-0.13;100.00
12969;BME280;6549;53.128;8.182;2022-11-20T06:29:14;100850.72;;;-0.16;100.00
12969;BME280;6549;53.128;8.182;2022-11-20T06:32:15;100851.50;;;-0.16;100.00
12969;BME280;6549;53.128;8.182;2022-11-20T06:35:15;100852.31;;;-0.15;100.00
12969;BME280;6549;53.128;8.182;2022-11-20T06:38:15;100860.88;;;-0.13;100.00
12969;BME280;6549;53.128;8.182;2022-11-20T06:41:18;100857.72;;;-0.15;100.00
12969;BME280;6549;53.128;8.182;2022-11-20T06:44:19;100856.13;;;-0.16;100.00
12969;BME280;6549;53.128;8.182;2022-11-20T06:47:19;100849.59;;;-0.15;100.00
12969;BME280;6549;53.128;8.182;2022-11-20T06:50:19;100853.41;;;-0.16;100.00
12969;BME280;6549;53.128;8.182;2022-11-20T06:53:21;100858.81;;;-0.16;100.00
12969;BME280;6549;53.128;8.182;2022-11-20T06:56:21;100856.13;;;-0.16;100.00
12969;BME280;6549;53.128;8.182;2022-11-20T06:59:22;100856.75;;;-0.19;100.00
12969;BME280;6549;53.128;8.182;2022-11-20T07:02:22;100865.66;;;-0.19;100.00
12969;BME280;6549;53.128;8.182;2022-11-20T07:05:23;100868.00;;;-0.17;100.00
12969;BME280;6549;53.128;8.182;2022-11-20T07:08:23;100857.53;;;-0.19;100.00
12969;BME280;6549;53.128;8.182;2022-11-20T07:11:24;100866.13;;;-0.17;100.00
12969;BME280;6549;53.128;8.182;2022-11-20T07:14:24;100858.81;;;-0.16;100.00
12969;BME280;6549;53.128;8.182;2022-11-20T07:17:25;100854.50;;;-0.17;100.00
12969;BME280;6549;53.128;8.182;2022-11-20T07:20:25;100851.00;;;-0.18;100.00
12969;BME280;6549;53.128;8.182;2022-11-20T07:23:26;100851.00;;;-0.18;100.00
12969;BME280;6549;53.128;8.182;2022-11-20T07:26:26;100858.81;;;-0.16;100.00
12969;BME280;6549;53.128;8.182;2022-11-20T07:29:26;100862.63;;;-0.17;100.00
12969;BME280;6549;53.128;8.182;2022-11-20T07:32:27;100867.72;;;-0.16;100.00
12969;BME280;6549;53.128;8.182;2022-11-20T07:35:27;100859.91;;;-0.17;100.00
12969;BME280;6549;53.128;8.182;2022-11-20T07:38:28;100863.13;;;-0.15;100.00
12969;BME280;6549;53.128;8.182;2022-11-20T07:41:28;100869.31;;;-0.15;100.00
12969;BME280;6549;53.128;8.182;2022-11-20T07:44:29;100863.28;;;-0.12;100.00
12969;BME280;6549;53.128;8.182;2022-11-20T07:47:35;100858.84;;;-0.08;100.00
12969;BME280;6549;53.128;8.182;2022-11-20T07:50:35;100862.53;;;-0.04;100.00
12969;BME280;6549;53.128;8.182;2022-11-20T07:53:35;100864.13;;;-0.03;100.00
12969;BME280;6549;53.128;8.182;2022-11-20T07:56:36;100863.00;;;-0.02;100.00
12969;BME280;6549;53.128;8.182;2022-11-20T07:59:36;100861.41;;;-0.03;100.00
12969;BME280;6549;53.128;8.182;2022-11-20T08:02:40;100861.41;;;-0.03;100.00
12969;BME280;6549;53.128;8.182;2022-11-20T08:05:41;100870.03;;;-0.01;100.00
12969;BME280;6549;53.128;8.182;2022-11-20T08:08:41;100866.97;;;0.01;100.00
12969;BME280;6549;53.128;8.182;2022-11-20T08:11:41;100870.19;;;0.03;100.00
12969;BME280;6549;53.128;8.182;2022-11-20T08:15:00;100865.25;;;0.05;100.00
12969;BME280;6549;53.128;8.182;2022-11-20T08:18:05;100866.84;;;0.06;100.00
12969;BME280;6549;53.128;8.182;2022-11-20T08:21:06;100870.06;;;0.08;100.00
12969;BME280;6549;53.128;8.182;2022-11-20T08:24:07;100869.41;;;0.11;100.00
12969;BME280;6549;53.128;8.182;2022-11-20T08:27:08;100866.09;;;0.14;100.00
12969;BME280;6549;53.128;8.182;2022-11-20T08:30:08;100855.78;;;0.16;100.00
12969;BME280;6549;53.128;8.182;2022-11-20T08:33:09;100865.47;;;0.17;100.00
12969;BME280;6549;53.128;8.182;2022-11-20T08:36:09;100869.44;;;0.20;100.00
12969;BME280;6549;53.128;8.182;2022-11-20T08:39:13;100870.25;;;0.20;100.00
12969;BME280;6549;53.128;8.182;2022-11-20T08:42:14;100867.84;;;0.19;100.00
12969;BME280;6549;53.128;8.182;2022-11-20T08:45:15;100866.44;;;0.21;100.00
12969;BME280;6549;53.128;8.182;2022-11-20T08:48:15;100864.19;;;0.23;100.00
12969;BME280;6549;53.128;8.182;2022-11-20T08:51:16;100867.41;;;0.25;100.00
12969;BME280;6549;53.128;8.182;2022-11-20T08:54:17;100864.56;;;0.30;100.00
12969;BME280;6549;53.128;8.182;2022-11-20T08:57:19;100861.22;;;0.33;100.00
12969;BME280;6549;53.128;8.182;2022-11-20T09:00:20;100864.41;;;0.35;100.00
12969;BME280;6549;53.128;8.182;2022-11-20T09:03:20;100861.72;;;0.35;100.00
12969;BME280;6549;53.128;8.182;2022-11-20T09:06:20;100856.13;;;0.40;100.00
12969;BME280;6549;53.128;8.182;2022-11-20T09:09:21;100849.78;;;0.45;100.00
12969;BME280;6549;53.128;8.182;2022-11-20T09:12:21;100850.28;;;0.47;100.00
12969;BME280;6549;53.128;8.182;2022-11-20T09:15:22;100852.34;;;0.50;100.00
12969;BME280;6549;53.128;8.182;2022-11-20T09:18:24;100853.63;;;0.53;100.00
12969;BME280;6549;53.128;8.182;2022-11-20T09:21:24;100860.81;;;0.57;100.00
12969;BME280;6549;53.128;8.182;2022-11-20T09:24:25;100860.47;;;0.59;100.00
12969;BME280;6549;53.128;8.182;2022-11-20T09:27:25;100860.97;;;0.61;100.00
12969;BME280;6549;53.128;8.182;2022-11-20T09:30:26;100859.06;;;0.70;100.00
12969;BME280;6549;53.128;8.182;2022-11-20T09:33:27;100862.75;;;0.82;100.00
12969;BME280;6549;53.128;8.182;2022-11-20T09:36:27;100867.03;;;0.92;100.00
12969;BME280;6549;53.128;8.182;2022-11-20T09:39:27;100868.47;;;0.98;100.00
12969;BME280;6549;53.128;8.182;2022-11-20T09:42:38;100869.41;;;1.02;100.00
12969;BME280;6549;53.128;8.182;2022-11-20T09:49:23;100876.75;;;1.02;100.00
12969;BME280;6549;53.128;8.182;2022-11-20T09:52:33;100878.66;;;1.01;100.00
12969;BME280;6549;53.128;8.182;2022-11-20T09:55:36;100873.56;;;1.00;100.00
12969;BME280;6549;53.128;8.182;2022-11-20T09:59:14;100865.94;;;1.02;100.00
12969;BME280;6549;53.128;8.182;2022-11-20T10:02:28;100867.03;;;1.01;100.00
12969;BME280;6549;53.128;8.182;2022-11-20T10:05:42;100859.88;;;1.05;100.00
12969;BME280;6549;53.128;8.182;2022-11-20T10:08:51;100870.84;;;1.08;100.00
12969;BME280;6549;53.128;8.182;2022-11-20T10:12:05;100855.72;;;1.07;100.00
12969;BME280;6549;53.128;8.182;2022-11-20T10:15:29;100859.06;;;1.13;100.00
12969;BME280;6549;53.128;8.182;2022-11-20T10:25:37;100838.84;;;1.27;100.00
12969;BME280;6549;53.128;8.182;2022-11-20T10:32:02;100837.53;;;1.33;100.00
12969;BME280;6549;53.128;8.182;2022-11-20T10:35:44;100829.09;;;1.35;100.00
12969;BME280;6549;53.128;8.182;2022-11-20T10:41:53;100837.38;;;1.39;100.00
12969;BME280;6549;53.128;8.182;2022-11-20T10:45:01;100834.38;;;1.40;100.00
12969;BME280;6549;53.128;8.182;2022-11-20T10:55:25;100825.56;;;1.52;100.00
12969;BME280;6549;53.128;8.182;2022-11-20T10:58:52;100823.78;;;1.56;100.00
12969;BME280;6549;53.128;8.182;2022-11-20T11:01:58;100825.53;;;1.60;100.00
12969;BME280;6549;53.128;8.182;2022-11-20T11:05:08;100826.34;;;1.61;100.00
12969;BME280;6549;53.128;8.182;2022-11-20T11:08:14;100822.81;;;1.60;100.00
12969;BME280;6549;53.128;8.182;2022-11-20T11:14:22;100818.69;;;1.63;100.00
12969;BME280;6549;53.128;8.182;2022-11-20T11:17:29;100816.44;;;1.65;100.00
12969;BME280;6549;53.128;8.182;2022-11-20T11:20:30;100813.38;;;1.75;100.00
12969;BME280;6549;53.128;8.182;2022-11-20T11:23:42;100808.75;;;1.75;100.00
12969;BME280;6549;53.128;8.182;2022-11-20T11:27:00;100806.06;;;1.75;100.00
12969;BME280;6549;53.128;8.182;2022-11-20T11:30:16;100797.56;;;1.86;100.00
12969;BME280;6549;53.128;8.182;2022-11-20T11:33:25;100791.63;;;1.92;100.00
12969;BME280;6549;53.128;8.182;2022-11-20T11:36:26;100797.94;;;2.05;100.00
12969;BME280;6549;53.128;8.182;2022-11-20T11:39:28;100780.75;;;2.30;100.00
12969;BME280;6549;53.128;8.182;2022-11-20T11:42:30;100789.75;;;2.43;100.00
12969;BME280;6549;53.128;8.182;2022-11-20T11:45:30;100791.00;;;2.45;100.00
12969;BME280;6549;53.128;8.182;2022-11-20T11:48:31;100785.69;;;2.49;100.00
12969;BME280;6549;53.128;8.182;2022-11-20T11:54:56;100780.09;;;2.54;100.00
12969;BME280;6549;53.128;8.182;2022-11-20T12:01:28;100773.53;;;2.55;100.00
12969;BME280;6549;53.128;8.182;2022-11-20T12:04:52;100775.25;;;2.59;100.00
12969;BME280;6549;53.128;8.182;2022-11-20T12:17:27;100749.25;;;3.24;100.00
12969;BME280;6549;53.128;8.182;2022-11-20T12:20:38;100760.91;;;3.25;100.00
12969;BME280;6549;53.128;8.182;2022-11-20T12:27:28;100748.31;;;3.08;100.00
12969;BME280;6549;53.128;8.182;2022-11-20T12:30:35;100747.41;;;3.04;100.00
12969;BME280;6549;53.128;8.182;2022-11-20T12:57:58;100725.63;;;2.59;100.00
12969;BME280;6549;53.128;8.182;2022-11-20T13:08:02;100717.66;;;2.21;100.00
12969;BME280;6549;53.128;8.182;2022-11-20T13:11:14;100722.97;;;2.09;100.00
12969;BME280;6549;53.128;8.182;2022-11-20T13:17:48;100704.25;;;1.95;100.00
12969;BME280;6549;53.128;8.182;2022-11-20T13:20:51;100714.34;;;1.86;100.00
12969;BME280;6549;53.128;8.182;2022-11-20T13:23:52;100715.69;;;1.80;100.00
12969;BME280;6549;53.128;8.182;2022-11-20T13:27:17;100716.00;;;1.78;100.00
12969;BME280;6549;53.128;8.182;2022-11-20T13:30:21;100714.41;;;1.77;100.00
12969;BME280;6549;53.128;8.182;2022-11-20T13:33:36;100697.31;;;1.86;100.00
12969;BME280;6549;53.128;8.182;2022-11-20T13:36:52;100701.34;;;2.00;100.00
12969;BME280;6549;53.128;8.182;2022-11-20T13:39:52;100702.75;;;2.06;100.00
12969;BME280;6549;53.128;8.182;2022-11-20T13:46:12;100697.47;;;2.10;100.00
12969;BME280;6549;53.128;8.182;2022-11-20T13:49:39;100698.44;;;2.05;100.00
12969;BME280;6549;53.128;8.182;2022-11-20T13:53:12;100695.47;;;1.98;100.00
12969;BME280;6549;53.128;8.182;2022-11-20T14:00:15;100686.09;;;1.66;100.00
12969;BME280;6549;53.128;8.182;2022-11-20T14:03:21;100682.84;;;1.52;100.00
12969;BME280;6549;53.128;8.182;2022-11-20T14:06:30;100688.56;;;1.51;100.00
12969;BME280;6549;53.128;8.182;2022-11-20T14:09:33;100680.91;;;1.53;100.00
12969;BME280;6549;53.128;8.182;2022-11-20T14:12:34;100682.97;;;1.56;100.00
12969;BME280;6549;53.128;8.182;2022-11-20T14:15:34;100680.75;;;1.58;100.00
12969;BME280;6549;53.128;8.182;2022-11-20T14:18:34;100682.47;;;1.62;100.00
12969;BME280;6549;53.128;8.182;2022-11-20T14:21:35;100670.34;;;1.60;100.00
12969;BME280;6549;53.128;8.182;2022-11-20T14:24:35;100668.00;;;1.58;100.00
12969;BME280;6549;53.128;8.182;2022-11-20T14:27:37;100664.00;;;1.56;100.00
12969;BME280;6549;53.128;8.182;2022-11-20T14:30:47;100664.34;;;1.54;100.00
12969;BME280;6549;53.128;8.182;2022-11-20T14:33:48;100656.22;;;1.54;100.00
12969;BME280;6549;53.128;8.182;2022-11-20T14:36:58;100654.94;;;1.52;100.00
12969;BME280;6549;53.128;8.182;2022-11-20T14:39:59;100651.78;;;1.50;100.00
12969;BME280;6549;53.128;8.182;2022-11-20T14:43:01;100648.28;;;1.49;100.00
12969;BME280;6549;53.128;8.182;2022-11-20T14:46:08;100644.66;;;1.45;100.00
12969;BME280;6549;53.128;8.182;2022-11-20T14:49:10;100638.44;;;1.45;100.00
12969;BME280;6549;53.128;8.182;2022-11-20T14:55:13;100630.41;;;1.57;100.00
12969;BME280;6549;53.128;8.182;2022-11-20T14:58:22;100625.25;;;1.64;100.00
12969;BME280;6549;53.128;8.182;2022-11-20T15:01:27;100625.53;;;1.71;100.00
12969;BME280;6549;53.128;8.182;2022-11-20T15:04:28;100610.47;;;1.82;100.00
12969;BME280;6549;53.128;8.182;2022-11-20T15:07:31;100616.34;;;1.84;100.00
12969;BME280;6549;53.128;8.182;2022-11-20T15:10:32;100612.06;;;1.83;100.00
12969;BME280;6549;53.128;8.182;2022-11-20T15:13:35;100599.97;;;1.80;100.00
12969;BME280;6549;53.128;8.182;2022-11-20T15:16:36;100595.34;;;1.81;100.00
12969;BME280;6549;53.128;8.182;2022-11-20T15:19:37;100588.78;;;1.82;100.00
12969;BME280;6549;53.128;8.182;2022-11-20T15:22:37;100593.03;;;1.71;100.00
12969;BME280;6549;53.128;8.182;2022-11-20T15:25:39;100584.28;;;1.65;100.00
12969;BME280;6549;53.128;8.182;2022-11-20T15:28:41;100578.09;;;1.65;100.00
12969;BME280;6549;53.128;8.182;2022-11-20T15:31:42;100572.84;;;1.60;100.00
12969;BME280;6549;53.128;8.182;2022-11-20T15:34:44;100571.63;;;1.57;100.00
12969;BME280;6549;53.128;8.182;2022-11-20T15:37:45;100573.53;;;1.57;100.00
12969;BME280;6549;53.128;8.182;2022-11-20T15:40:45;100570.69;;;1.53;100.00
12969;BME280;6549;53.128;8.182;2022-11-20T15:43:46;100570.63;;;1.41;100.00
12969;BME280;6549;53.128;8.182;2022-11-20T15:46:46;100566.56;;;1.26;100.00
12969;BME280;6549;53.128;8.182;2022-11-20T15:49:47;100562.19;;;1.13;100.00
12969;BME280;6549;53.128;8.182;2022-11-20T15:52:47;100558.06;;;1.07;100.00
12969;BME280;6549;53.128;8.182;2022-11-20T15:55:47;100564.94;;;1.05;100.00
12969;BME280;6549;53.128;8.182;2022-11-20T15:58:48;100558.91;;;0.99;100.00
12969;BME280;6549;53.128;8.182;2022-11-20T16:01:48;100543.81;;;0.89;100.00
12969;BME280;6549;53.128;8.182;2022-11-20T16:04:49;100537.50;;;0.77;100.00
12969;BME280;6549;53.128;8.182;2022-11-20T16:07:50;100538.03;;;0.70;100.00
12969;BME280;6549;53.128;8.182;2022-11-20T16:10:51;100545.34;;;0.70;100.00
12969;BME280;6549;53.128;8.182;2022-11-20T16:13:51;100537.88;;;0.67;100.00
12969;BME280;6549;53.128;8.182;2022-11-20T16:17:17;100538.84;;;0.62;100.00
12969;BME280;6549;53.128;8.182;2022-11-20T16:20:38;100533.63;;;0.57;100.00
12969;BME280;6549;53.128;8.182;2022-11-20T16:23:39;100537.31;;;0.53;100.00
12969;BME280;6549;53.128;8.182;2022-11-20T16:26:40;100541.59;;;0.45;100.00
12969;BME280;6549;53.128;8.182;2022-11-20T16:29:40;100539.88;;;0.40;100.00
12969;BME280;6549;53.128;8.182;2022-11-20T16:32:40;100540.69;;;0.32;100.00
12969;BME280;6549;53.128;8.182;2022-11-20T16:35:41;100549.75;;;0.28;100.00
12969;BME280;6549;53.128;8.182;2022-11-20T16:38:41;100545.47;;;0.27;100.00
12969;BME280;6549;53.128;8.182;2022-11-20T16:41:42;100546.25;;;0.27;100.00
12969;BME280;6549;53.128;8.182;2022-11-20T16:44:45;100541.50;;;0.24;100.00
12969;BME280;6549;53.128;8.182;2022-11-20T16:47:45;100536.75;;;0.21;100.00
12969;BME280;6549;53.128;8.182;2022-11-20T16:50:48;100542.78;;;0.10;100.00
12969;BME280;6549;53.128;8.182;2022-11-20T16:53:49;100534.25;;;-0.01;100.00
12969;BME280;6549;53.128;8.182;2022-11-20T16:56:50;100532.50;;;-0.06;100.00
12969;BME280;6549;53.128;8.182;2022-11-20T16:59:52;100523.28;;;-0.05;100.00
12969;BME280;6549;53.128;8.182;2022-11-20T17:02:53;100525.19;;;-0.05;100.00
12969;BME280;6549;53.128;8.182;2022-11-20T17:05:53;100518.22;;;-0.06;100.00
12969;BME280;6549;53.128;8.182;2022-11-20T17:08:54;100518.53;;;-0.16;100.00
12969;BME280;6549;53.128;8.182;2022-11-20T17:11:55;100521.72;;;-0.23;100.00
12969;BME280;6549;53.128;8.182;2022-11-20T17:14:55;100513.94;;;-0.24;100.00
12969;BME280;6549;53.128;8.182;2022-11-20T17:17:56;100511.09;;;-0.28;100.00
12969;BME280;6549;53.128;8.182;2022-11-20T17:20:56;100507.09;;;-0.30;100.00
12969;BME280;6549;53.128;8.182;2022-11-20T17:24:02;100508.84;;;-0.26;100.00
12969;BME280;6549;53.128;8.182;2022-11-20T17:27:02;100510.28;;;-0.28;100.00
12969;BME280;6549;53.128;8.182;2022-11-20T17:30:03;100500.91;;;-0.39;100.00
12969;BME280;6549;53.128;8.182;2022-11-20T17:33:03;100493.94;;;-0.40;100.00
12969;BME280;6549;53.128;8.182;2022-11-20T17:36:05;100498.06;;;-0.52;100.00